KSTL/STL METAR and TAF weather

Enter ICAO airport designator
Station Type Date Time Source
KSTL METAR 2021/07/28 04:51 UTC NOAA

KSTL 280451Z 00000KT 10SM CLR 27/20 A3006 RMK AO2 SLP163 T02720200


Station Type Date Time Source
KSTL Decoded METAR 2021/07/28 04:51 UTC NOAA

LAMBERT-ST LOUIS INTERNATIONAL AIRPORT , MO, United States (KSTL) 38-45N 90-22W 171M
Jul 28, 2021 - 12:51 AM EDT / 2021.07.28 0451 UTC
Wind: Calm:0
Visibility: 10 mile(s):0
Sky conditions: clear
Temperature: 81.0 F (27.2 C)
Dew Point: 68.0 F (20.0 C)
Relative Humidity: 64%
Pressure (altimeter): 30.06 in. Hg (1017 hPa)
ob: KSTL 280451Z 00000KT 10SM CLR 27/20 A3006 RMK AO2 SLP163 T02720200
cycle: 5

Station Type Date Time Source
KSTL TAF 2021/07/28 06:22 UTC NOAA

TAF KSTL 280520Z 2806/2912 VRB04KT P6SM SKC
FM281800 25005KT P6SM BKN250
FM290000 20005KT P6SM SCT250

Example: see airport list